Time;durP1;ratioP1;P1;durP2;ratioP2;P2;SDS_P1;SDS_P2;PMS_P1;PMS_P2;Temp;Humidity;BMP_temperature;BMP_pressure;BME280_temperature;BME280_humidity;BME280_pressure;Samples;Min_cycle;Max_cycle;Signal;HPM_P1;HPM_P2
2023/05/12 14:41:40;;;;;;;6.05;4.78;;;;;;;18.59;74.03;100171.72;5057615;28;20394;-77
2023/05/12 14:44:05;;;;;;;4.23;4.00;;;;;;;18.38;74.47;100175.94;5053861;28;20441;-83
2023/05/12 14:46:30;;;;;;;4.75;3.85;;;;;;;18.32;74.37;100179.88;5056951;28;20416;-78
2023/05/12 14:48:56;;;;;;;3.77;3.53;;;;;;;18.29;74.01;100175.84;5060201;28;20405;-77
2023/05/12 14:51:21;;;;;;;12.17;8.00;;;;;;;18.39;73.38;100183.88;5049978;28;20929;-76
2023/05/12 14:53:47;;;;;;;4.32;3.88;;;;;;;18.50;72.61;100176.31;5050330;28;20462;-76
2023/05/12 14:56:12;;;;;;;4.17;3.87;;;;;;;18.51;72.19;100173.22;5053685;28;20496;-77
2023/05/12 14:58:38;;;;;;;5.45;3.95;;;;;;;18.41;72.58;100178.88;5046632;28;20952;-76
2023/05/12 15:01:04;;;;;;;3.90;3.60;;;;;;;18.41;72.58;100180.81;5047674;28;20461;-77
2023/05/12 15:03:32;;;;;;;2.95;2.75;;;;;;;18.40;71.49;100185.50;5060921;28;20433;-76
2023/05/12 15:05:58;;;;;;;3.72;3.33;;;;;;;18.32;72.03;100183.44;5052925;28;20505;-76
2023/05/12 15:08:23;;;;;;;3.45;3.20;;;;;;;18.31;72.50;100186.50;5042226;28;20425;-76
2023/05/12 15:10:49;;;;;;;3.27;3.17;;;;;;;18.34;72.90;100183.94;5051391;28;20401;-76
2023/05/12 15:13:17;;;;;;;3.40;3.20;;;;;;;18.36;72.98;100180.91;5043546;28;20420;-76
2023/05/12 15:15:42;;;;;;;3.88;3.58;;;;;;;18.39;72.52;100183.88;5049899;28;20396;-76
2023/05/12 15:18:07;;;;;;;5.03;3.00;;;;;;;18.42;72.62;100186.00;5058617;28;20765;-77
2023/05/12 15:20:33;;;;;;;3.13;2.30;;;;;;;18.42;72.07;100180.53;5057264;28;20416;-76
2023/05/12 15:22:58;;;;;;;2.43;2.33;;;;;;;18.33;71.31;100185.09;5065450;28;20429;-76
2023/05/12 15:25:24;;;;;;;2.50;2.30;;;;;;;18.46;70.59;100186.22;5061206;28;20408;-76
2023/05/12 15:27:49;;;;;;;2.23;2.10;;;;;;;18.56;70.81;100177.81;5054449;28;20406;-79
2023/05/12 15:30:15;;;;;;;2.60;2.40;;;;;;;18.71;69.48;100182.19;5058799;28;20543;-76
2023/05/12 15:32:40;;;;;;;2.03;2.03;;;;;;;18.70;68.55;100178.66;5059245;28;20406;-75
2023/05/12 15:35:07;;;;;;;2.10;2.00;;;;;;;18.73;68.30;100183.53;5059299;28;21007;-76
2023/05/12 15:37:32;;;;;;;2.00;1.80;;;;;;;18.81;67.51;100187.47;5061230;28;20419;-76
2023/05/12 15:39:58;;;;;;;2.80;2.50;;;;;;;18.75;67.09;100180.47;5052469;28;20812;-76
2023/05/12 15:42:23;;;;;;;2.40;2.30;;;;;;;18.67;66.73;100185.53;5053775;28;20497;-75
2023/05/12 15:44:49;;;;;;;4.53;2.40;;;;;;;18.61;66.94;100183.19;5049660;28;20413;-74
2023/05/12 15:47:15;;;;;;;2.63;2.13;;;;;;;18.62;67.09;100182.91;5055716;28;20767;-74
2023/05/12 15:49:40;;;;;;;2.97;2.23;;;;;;;18.61;67.05;100183.19;5057156;28;20422;-74
2023/05/12 15:52:06;;;;;;;2.43;2.33;;;;;;;18.64;67.21;100182.59;5037465;28;20407;-74
2023/05/12 15:54:31;;;;;;;3.33;2.60;;;;;;;18.59;66.80;100182.69;5044947;28;20391;-74
2023/05/12 15:56:57;;;;;;;2.50;2.30;;;;;;;18.49;66.67;100183.69;5027167;28;20872;-75
2023/05/12 15:59:22;;;;;;;2.87;2.53;;;;;;;18.41;66.75;100187.13;5047511;28;20397;-75
2023/05/12 16:01:47;;;;;;;3.30;2.97;;;;;;;18.44;66.65;100192.00;5031298;28;20758;-75
2023/05/12 16:04:12;;;;;;;2.88;2.58;;;;;;;18.46;66.47;100191.69;5040769;28;20412;-75
2023/05/12 16:06:38;;;;;;;2.80;2.60;;;;;;;18.45;66.49;100188.16;5048081;28;20396;-75
2023/05/12 16:09:03;;;;;;;3.00;2.70;;;;;;;18.42;66.78;100188.75;5043958;28;20399;-75
2023/05/12 16:11:29;;;;;;;4.23;2.90;;;;;;;18.46;67.06;100194.44;5043542;28;20941;-74
2023/05/12 16:13:56;;;;;;;3.37;2.50;;;;;;;18.60;66.42;100184.34;5033567;28;20407;-75
2023/05/12 16:16:21;;;;;;;2.95;2.80;;;;;;;18.53;66.03;100183.91;5044858;28;20870;-75
2023/05/12 16:18:46;;;;;;;2.73;2.53;;;;;;;18.43;66.54;100186.81;5031352;28;20488;-74
2023/05/12 16:21:12;;;;;;;3.13;2.93;;;;;;;18.37;66.91;100185.28;5047899;28;20417;-77
2023/05/12 16:23:38;;;;;;;4.25;2.78;;;;;;;18.40;67.15;100191.00;5035367;28;20403;-74
2023/05/12 16:26:03;;;;;;;4.10;2.83;;;;;;;18.42;67.37;100185.19;5028320;28;20399;-74
2023/05/12 16:28:30;;;;;;;3.77;2.87;;;;;;;18.50;67.41;100190.03;5044742;28;20459;-74
2023/05/12 16:30:56;;;;;;;3.03;2.83;;;;;;;18.50;67.31;100187.28;5037076;28;20463;-75
2023/05/12 16:33:21;;;;;;;9.30;2.73;;;;;;;18.43;67.21;100187.66;5038834;28;20409;-73
2023/05/12 16:35:46;;;;;;;3.70;3.00;;;;;;;18.44;67.29;100182.97;5040249;28;20412;-74
2023/05/12 16:38:12;;;;;;;3.10;2.80;;;;;;;18.40;67.20;100192.91;5034468;28;20416;-75
2023/05/12 16:40:37;;;;;;;6.63;2.97;;;;;;;18.42;67.01;100193.41;5037167;28;20423;-74
2023/05/12 16:43:02;;;;;;;3.10;2.80;;;;;;;18.38;66.80;100182.25;5036280;28;20395;-75
2023/05/12 16:45:28;;;;;;;3.17;2.85;;;;;;;18.40;67.21;100187.44;5037192;28;20812;-74
2023/05/12 16:47:53;;;;;;;3.67;3.40;;;;;;;18.31;67.17;100190.03;5047210;28;20425;-74
2023/05/12 16:50:19;;;;;;;4.53;2.60;;;;;;;18.27;67.80;100191.78;5047295;28;20741;-74
2023/05/12 16:52:44;;;;;;;3.00;2.70;;;;;;;18.26;67.78;100183.84;5048936;28;20404;-73
2023/05/12 16:55:09;;;;;;;2.70;2.60;;;;;;;18.20;68.01;100185.88;5046558;28;21040;-74
2023/05/12 16:57:35;;;;;;;2.83;2.63;;;;;;;18.17;68.34;100191.16;5031968;28;20419;-74
2023/05/12 17:00:04;;;;;;;3.15;2.85;;;;;;;18.11;68.41;100187.69;5045512;28;20522;-74
2023/05/12 17:02:29;;;;;;;2.88;2.60;;;;;;;18.10;68.19;100192.34;5040820;28;20413;-72
2023/05/12 17:04:54;;;;;;;4.77;2.40;;;;;;;18.07;68.29;100187.47;5046421;28;20398;-74
2023/05/12 17:07:20;;;;;;;3.07;2.17;;;;;;;18.08;68.06;100196.50;5044987;28;20391;-73
2023/05/12 17:09:45;;;;;;;1.70;1.60;;;;;;;18.11;67.36;100193.19;5037846;28;20462;-74
2023/05/12 17:12:10;;;;;;;1.60;1.60;;;;;;;18.02;67.25;100198.50;5036552;28;20398;-75
2023/05/12 17:14:36;;;;;;;1.70;1.60;;;;;;;18.04;67.20;100204.53;5040610;28;20399;-75
2023/05/12 17:17:01;;;;;;;2.27;1.77;;;;;;;18.05;67.10;100200.66;5039887;28;20441;-74
2023/05/12 17:19:27;;;;;;;1.42;1.42;;;;;;;18.03;66.84;100204.81;5045963;28;20457;-74
2023/05/12 17:21:52;;;;;;;2.30;2.20;;;;;;;17.94;66.32;100212.13;5041667;28;20417;-74
2023/05/12 17:24:18;;;;;;;1.70;1.60;;;;;;;17.90;66.21;100205.59;5038544;28;20547;-75
2023/05/12 17:26:43;;;;;;;1.33;1.33;;;;;;;17.85;65.83;100203.72;5038655;28;20406;-74
2023/05/12 17:29:09;;;;;;;1.60;1.40;;;;;;;17.78;65.80;100203.31;5032957;28;20984;-74
2023/05/12 17:31:35;;;;;;;1.93;1.80;;;;;;;17.69;66.07;100210.56;5038582;28;20451;-74
2023/05/12 17:34:01;;;;;;;2.40;1.73;;;;;;;17.63;66.17;100206.28;5044423;28;20401;-74
2023/05/12 17:36:26;;;;;;;1.67;1.33;;;;;;;17.65;66.29;100209.53;5031786;28;20399;-74
2023/05/12 17:38:51;;;;;;;1.70;1.60;;;;;;;17.56;65.87;100206.66;5032487;28;20438;-74
2023/05/12 17:41:17;;;;;;;2.40;1.90;;;;;;;17.57;66.37;100207.47;5047093;28;20452;-74
2023/05/12 17:43:43;;;;;;;2.05;1.40;;;;;;;17.46;66.70;100206.78;5046503;28;20416;-74
2023/05/12 17:46:08;;;;;;;1.30;1.20;;;;;;;17.48;66.70;100211.97;5043684;28;20490;-74
2023/05/12 17:48:34;;;;;;;2.00;1.10;;;;;;;17.48;66.71;100218.28;5031835;28;20469;-74
2023/05/12 17:51:01;;;;;;;1.90;1.33;;;;;;;17.41;67.04;100219.75;5032788;28;20421;-74
2023/05/12 17:53:27;;;;;;;1.73;1.63;;;;;;;17.36;67.44;100217.06;5039185;28;20781;-74
2023/05/12 17:55:53;;;;;;;1.40;1.30;;;;;;;17.28;67.26;100217.72;5037434;28;20408;-75
2023/05/12 17:58:19;;;;;;;1.20;1.10;;;;;;;17.23;67.55;100218.59;5042511;28;20909;-74
2023/05/12 18:00:44;;;;;;;1.15;1.15;;;;;;;17.18;67.50;100223.34;5026929;28;20897;-74
2023/05/12 18:03:10;;;;;;;2.17;1.97;;;;;;;17.13;67.84;100219.56;5037592;28;20477;-74
2023/05/12 18:05:35;;;;;;;1.67;1.33;;;;;;;17.12;68.10;100223.41;5039874;28;20422;-74
2023/05/12 18:08:00;;;;;;;2.57;2.30;;;;;;;17.15;68.26;100227.50;5042984;28;20399;-75
2023/05/12 18:10:26;;;;;;;1.70;1.40;;;;;;;17.04;68.36;100228.72;5032590;28;20437;-75
2023/05/12 18:12:51;;;;;;;1.00;1.00;;;;;;;16.98;68.63;100229.91;5040186;28;20405;-74
2023/05/12 18:15:18;;;;;;;1.20;1.20;;;;;;;16.97;68.59;100228.25;5032717;28;20488;-74
2023/05/12 18:17:44;;;;;;;1.48;1.30;;;;;;;16.94;68.78;100234.31;5020190;28;20456;-74
2023/05/12 18:20:09;;;;;;;1.60;1.00;;;;;;;16.89;68.87;100234.41;5036784;28;20917;-74
2023/05/12 18:22:35;;;;;;;0.80;0.80;;;;;;;16.88;69.10;100236.31;5038611;28;20903;-74
2023/05/12 18:25:00;;;;;;;1.98;1.52;;;;;;;16.88;69.24;100239.06;5031831;28;20991;-74
2023/05/12 18:27:25;;;;;;;1.90;1.80;;;;;;;16.81;69.43;100235.84;5045551;28;20381;-75
2023/05/12 18:29:51;;;;;;;1.23;1.23;;;;;;;16.71;69.68;100238.69;5042012;28;20896;-74
2023/05/12 18:32:16;;;;;;;2.93;1.50;;;;;;;16.67;69.93;100239.56;5045211;28;20405;-74
2023/05/12 18:34:44;;;;;;;1.97;1.40;;;;;;;16.64;69.84;100248.34;5046030;28;20900;-74
2023/05/12 18:37:13;;;;;;;1.23;1.13;;;;;;;16.63;69.79;100238.53;5045976;28;20764;-74
2023/05/12 18:39:38;;;;;;;1.95;1.10;;;;;;;16.56;70.31;100241.59;5040275;28;20814;-74
2023/05/12 18:42:04;;;;;;;1.35;1.30;;;;;;;16.50;70.31;100238.06;5043086;28;20387;-74
2023/05/12 18:44:29;;;;;;;1.33;1.30;;;;;;;16.52;70.27;100246.81;5032072;28;20405;-75
2023/05/12 18:46:57;;;;;;;1.00;1.00;;;;;;;16.50;70.46;100249.00;5032955;28;20418;-75
2023/05/12 18:49:22;;;;;;;2.40;1.13;;;;;;;16.50;70.29;100245.44;5044176;28;20409;-74
2023/05/12 18:51:47;;;;;;;1.13;1.13;;;;;;;16.51;70.52;100244.34;5041002;28;20448;-74
2023/05/12 18:54:12;;;;;;;1.63;1.42;;;;;;;16.50;70.55;100259.94;5037468;28;20389;-74
2023/05/12 18:56:38;;;;;;;2.00;1.20;;;;;;;16.53;70.48;100253.09;5041418;28;20436;-74
2023/05/12 18:59:03;;;;;;;1.10;1.10;;;;;;;16.49;70.59;100260.25;5038660;28;20407;-74
2023/05/12 19:01:29;;;;;;;0.90;0.90;;;;;;;16.45;70.46;100264.66;5043842;28;20841;-74
2023/05/12 19:03:54;;;;;;;0.88;0.88;;;;;;;16.39;70.68;100271.28;5042456;28;20779;-74
2023/05/12 19:06:20;;;;;;;1.67;1.00;;;;;;;16.32;70.92;100268.06;5044348;28;20401;-74
2023/05/12 19:08:45;;;;;;;1.48;0.93;;;;;;;16.27;71.04;100281.78;5045887;28;20748;-74
2023/05/12 19:11:10;;;;;;;1.00;1.00;;;;;;;16.22;71.14;100276.34;5042851;28;20406;-74
2023/05/12 19:13:41;;;;;;;1.38;1.00;;;;;;;16.22;71.26;100287.28;5043193;28;20401;-74
2023/05/12 19:16:06;;;;;;;2.20;0.90;;;;;;;16.18;71.22;100288.94;5035959;28;20561;-74
2023/05/12 19:18:31;;;;;;;0.80;0.80;;;;;;;16.16;71.44;100288.44;5036030;28;20960;-74
2023/05/12 19:20:57;;;;;;;1.08;0.90;;;;;;;16.17;71.60;100290.84;5044542;28;20440;-74
2023/05/12 19:23:23;;;;;;;0.80;0.77;;;;;;;16.11;71.33;100289.28;5044632;28;20386;-74
2023/05/12 19:25:48;;;;;;;0.80;0.80;;;;;;;16.04;71.93;100292.31;5046810;28;20385;-73
2023/05/12 19:28:14;;;;;;;2.15;0.88;;;;;;;16.07;71.76;100299.13;5047175;28;20429;-74
2023/05/12 19:30:39;;;;;;;0.90;0.90;;;;;;;16.06;71.77;100303.81;5028694;28;20807;-74
2023/05/12 19:33:05;;;;;;;1.83;1.37;;;;;;;16.07;71.77;100299.13;5046994;28;20461;-74
2023/05/12 19:35:30;;;;;;;1.40;0.80;;;;;;;16.09;71.69;100296.94;5048709;28;20496;-74
2023/05/12 19:37:55;;;;;;;1.60;1.60;;;;;;;16.04;71.77;100299.72;5053856;28;20386;-74
2023/05/12 19:40:20;;;;;;;4.97;3.27;;;;;;;16.03;71.89;100300.81;5045811;28;20409;-74
2023/05/12 19:42:46;;;;;;;2.15;2.00;;;;;;;16.03;71.75;100303.56;5045836;28;20740;-75
2023/05/12 19:45:11;;;;;;;2.70;2.40;;;;;;;15.98;71.91;100309.88;5045817;28;20397;-74
2023/05/12 19:47:36;;;;;;;2.30;2.00;;;;;;;16.00;71.93;100310.38;5049817;28;20473;-74
2023/05/12 19:50:03;;;;;;;1.80;1.70;;;;;;;16.02;71.80;100318.31;5044641;28;20773;-74
2023/05/12 19:52:30;;;;;;;1.90;1.20;;;;;;;16.03;71.57;100326.25;5036261;28;20402;-74
2023/05/12 19:54:55;;;;;;;2.05;1.30;;;;;;;16.04;71.76;100324.31;5026821;28;20863;-74
2023/05/12 19:57:21;;;;;;;1.07;1.07;;;;;;;16.03;71.91;100319.97;5049907;28;20384;-75
2023/05/12 19:59:46;;;;;;;1.50;0.80;;;;;;;16.02;71.81;100323.78;5047535;28;20409;-74
2023/05/12 20:02:13;;;;;;;1.17;1.03;;;;;;;16.03;71.55;100319.97;5044107;28;20449;-74
2023/05/12 20:04:38;;;;;;;1.15;0.95;;;;;;;16.05;71.58;100318.56;5047536;28;20381;-74
2023/05/12 20:07:04;;;;;;;0.90;0.90;;;;;;;16.06;71.34;100330.31;5045197;28;20394;-74
2023/05/12 20:09:29;;;;;;;0.73;0.73;;;;;;;16.00;71.50;100332.25;5028149;28;20456;-74
2023/05/12 20:11:55;;;;;;;0.80;0.80;;;;;;;15.96;71.38;100328.47;5031659;28;20411;-74
2023/05/12 20:14:21;;;;;;;0.70;0.70;;;;;;;15.99;71.27;100335.28;5034423;28;20464;-74
2023/05/12 20:16:46;;;;;;;1.20;0.77;;;;;;;15.96;71.22;100341.31;5041189;28;20424;-74
2023/05/12 20:19:11;;;;;;;0.80;0.80;;;;;;;15.96;71.43;100338.59;5037084;28;20415;-74
2023/05/12 20:21:37;;;;;;;2.03;1.00;;;;;;;15.93;71.35;100336.44;5033382;28;20505;-74
2023/05/12 20:24:02;;;;;;;1.00;0.90;;;;;;;15.93;71.28;100342.72;5033054;28;20469;-74
2023/05/12 20:26:29;;;;;;;1.73;0.90;;;;;;;15.92;71.52;100351.19;5030868;28;20410;-74
2023/05/12 20:28:54;;;;;;;2.65;0.80;;;;;;;15.91;71.44;100346.81;5032409;28;20489;-74
2023/05/12 20:31:21;;;;;;;0.93;0.93;;;;;;;15.88;71.33;100350.09;5023819;28;20414;-74
2023/05/12 20:33:46;;;;;;;2.03;0.75;;;;;;;15.90;71.08;100348.75;5027812;28;20527;-74
2023/05/12 20:36:12;;;;;;;1.70;1.07;;;;;;;15.91;70.95;100361.28;5036683;28;20411;-74
2023/05/12 20:38:37;;;;;;;1.50;0.90;;;;;;;15.86;71.22;100357.78;5035318;28;20890;-74
2023/05/12 20:41:04;;;;;;;0.87;0.80;;;;;;;15.83;71.33;100350.97;5033469;28;20460;-74
2023/05/12 20:43:29;;;;;;;1.30;0.60;;;;;;;15.84;71.08;100360.00;5039832;28;20506;-74
2023/05/12 20:45:55;;;;;;;0.77;0.77;;;;;;;15.82;71.08;100360.25;5043227;28;20505;-73
2023/05/12 20:48:20;;;;;;;0.70;0.70;;;;;;;15.83;71.30;100355.63;5032248;28;20413;-74
2023/05/12 20:50:46;;;;;;;0.75;0.73;;;;;;;15.82;71.36;100357.53;5030769;28;20771;-74
2023/05/12 20:53:11;;;;;;;1.30;0.90;;;;;;;15.76;71.36;100353.19;5034394;28;20415;-75
2023/05/12 20:55:38;;;;;;;0.70;0.70;;;;;;;15.70;71.40;100354.31;5014975;28;20417;-74
2023/05/12 20:58:04;;;;;;;0.73;0.73;;;;;;;15.59;71.81;100355.47;5023307;28;20410;-74
2023/05/12 21:00:29;;;;;;;0.80;0.80;;;;;;;15.60;72.11;100354.38;5033037;28;20410;-74
2023/05/12 21:02:54;;;;;;;0.80;0.80;;;;;;;15.61;71.81;100358.72;5038405;28;20389;-74
2023/05/12 21:05:20;;;;;;;1.23;1.07;;;;;;;15.62;71.67;100356.81;5033201;28;20391;-74
2023/05/12 21:07:45;;;;;;;0.90;0.90;;;;;;;15.64;71.80;100360.09;5037714;28;20391;-74
2023/05/12 21:10:10;;;;;;;1.10;1.10;;;;;;;15.64;71.85;100360.09;5032991;28;20457;-74
2023/05/12 21:12:36;;;;;;;1.20;0.90;;;;;;;15.70;71.62;100367.16;5037042;28;20433;-74
2023/05/12 21:15:02;;;;;;;0.70;0.70;;;;;;;15.71;71.42;100364.13;5037316;28;20935;-74
2023/05/12 21:17:28;;;;;;;0.80;0.80;;;;;;;15.66;71.44;100363.34;5036101;28;20402;-74
2023/05/12 21:19:53;;;;;;;1.47;1.07;;;;;;;15.64;71.56;100366.38;5034959;28;20762;-74
2023/05/12 21:22:18;;;;;;;0.90;0.90;;;;;;;15.60;71.68;100359.84;5039812;28;20389;-74
2023/05/12 21:24:43;;;;;;;1.13;0.80;;;;;;;15.59;71.54;100371.84;5038136;28;20418;-74
2023/05/12 21:27:10;;;;;;;1.70;0.80;;;;;;;15.62;71.64;100376.75;5037295;28;20391;-74
2023/05/12 21:29:35;;;;;;;2.40;0.88;;;;;;;15.61;71.68;100374.31;5029790;28;20409;-74
2023/05/12 21:32:01;;;;;;;0.83;0.70;;;;;;;15.60;71.61;100373.50;5036523;28;20397;-74
2023/05/12 21:34:26;;;;;;;0.82;0.82;;;;;;;15.57;71.69;100374.88;5037086;28;20417;-74
2023/05/12 21:36:52;;;;;;;0.80;0.80;;;;;;;15.55;71.75;100376.22;5037415;28;20474;-74
2023/05/12 21:39:17;;;;;;;0.80;0.80;;;;;;;15.53;71.89;100382.00;5032206;28;20548;-74
2023/05/12 21:41:42;;;;;;;0.77;0.77;;;;;;;15.50;71.72;100376.25;5036479;28;20501;-74
2023/05/12 21:44:08;;;;;;;1.27;1.00;;;;;;;15.45;72.25;100379.78;5039865;28;20382;-74
2023/05/12 21:46:34;;;;;;;0.75;0.75;;;;;;;15.44;72.28;100389.06;5037040;28;20460;-74
2023/05/12 21:49:00;;;;;;;0.90;0.90;;;;;;;15.38;72.54;100392.09;5034796;28;20391;-74
2023/05/12 21:51:28;;;;;;;1.50;1.00;;;;;;;15.42;72.29;100388.53;5034030;28;20414;-74
2023/05/12 21:53:54;;;;;;;0.85;0.85;;;;;;;15.46;72.30;100383.34;5039129;28;20409;-74
2023/05/12 21:56:22;;;;;;;1.90;0.90;;;;;;;15.43;72.20;100386.63;5035613;28;20752;-74
2023/05/12 21:58:49;;;;;;;0.90;0.90;;;;;;;15.44;72.13;100399.19;5035057;28;20459;-74
2023/05/12 22:01:15;;;;;;;3.95;1.15;;;;;;;15.43;72.25;100398.38;5034277;28;20414;-74
2023/05/12 22:03:40;;;;;;;1.00;0.80;;;;;;;15.44;72.47;100399.19;5040439;28;20443;-74
2023/05/12 22:06:06;;;;;;;1.10;1.10;;;;;;;15.46;72.33;100383.34;5035256;28;20395;-74
2023/05/12 22:08:32;;;;;;;0.95;0.93;;;;;;;15.42;72.35;100396.72;5036610;28;20391;-74
2023/05/12 22:10:57;;;;;;;1.20;0.90;;;;;;;15.41;72.43;100391.56;5042021;28;20469;-74
2023/05/12 22:13:22;;;;;;;0.97;0.90;;;;;;;15.34;72.84;100394.59;5039850;28;20431;-74
2023/05/12 22:15:48;;;;;;;1.10;1.10;;;;;;;15.42;72.52;100404.09;5037889;28;20407;-74
2023/05/12 22:18:13;;;;;;;1.30;0.80;;;;;;;15.46;72.29;100400.56;5026838;28;20782;-74
2023/05/12 22:20:39;;;;;;;1.02;1.02;;;;;;;15.43;72.46;100398.38;5031213;28;20805;-74
2023/05/12 22:23:04;;;;;;;1.23;1.13;;;;;;;15.43;72.41;100403.00;5038374;28;20398;-74
2023/05/12 22:25:29;;;;;;;1.10;1.10;;;;;;;15.40;72.58;100401.66;5038707;28;20432;-74
2023/05/12 22:27:55;;;;;;;1.10;1.10;;;;;;;15.42;72.63;100404.94;5033011;28;20410;-74
2023/05/12 22:30:20;;;;;;;1.40;1.30;;;;;;;15.44;72.59;100401.94;5029885;28;20410;-74
2023/05/12 22:32:45;;;;;;;1.40;1.17;;;;;;;15.41;72.60;100400.56;5037332;28;20392;-73
2023/05/12 22:35:13;;;;;;;1.20;1.17;;;;;;;15.39;72.83;100405.47;5035547;28;20505;-73
2023/05/12 22:37:39;;;;;;;1.58;1.10;;;;;;;15.39;72.73;100407.38;5032731;28;21309;-73
2023/05/12 22:40:05;;;;;;;0.90;0.90;;;;;;;15.35;72.78;100407.13;5030513;28;20417;-73
2023/05/12 22:42:30;;;;;;;2.35;1.10;;;;;;;15.39;72.68;100410.94;5035224;28;20473;-73
2023/05/12 22:44:57;;;;;;;1.40;1.03;;;;;;;15.40;72.46;100409.84;5039971;28;20484;-73
2023/05/12 22:47:22;;;;;;;2.03;1.00;;;;;;;15.37;72.52;100401.41;5036449;28;20932;-73
2023/05/12 22:49:47;;;;;;;1.27;1.27;;;;;;;15.37;72.50;100399.50;5035399;28;20391;-73
2023/05/12 22:52:12;;;;;;;2.80;1.30;;;;;;;15.31;72.68;100402.50;5028160;28;20406;-73
2023/05/12 22:54:38;;;;;;;2.80;1.50;;;;;;;15.30;72.65;100396.22;5027158;28;20401;-73
2023/05/12 22:57:03;;;;;;;1.10;1.10;;;;;;;15.34;72.56;100391.84;5031974;28;20762;-73
2023/05/12 22:59:28;;;;;;;1.40;1.17;;;;;;;15.36;72.23;100392.38;5024523;28;20452;-73
2023/05/12 23:01:54;;;;;;;1.27;1.20;;;;;;;15.39;72.35;100399.19;5028081;28;20469;-73
2023/05/12 23:04:19;;;;;;;1.23;1.13;;;;;;;15.41;72.12;100397.81;5041812;28;20486;-73
2023/05/12 23:06:44;;;;;;;1.35;1.35;;;;;;;15.42;71.69;100398.63;5036407;28;20483;-73
2023/05/12 23:09:09;;;;;;;2.00;1.10;;;;;;;15.41;71.73;100405.22;5030176;28;20417;-73
2023/05/12 23:11:35;;;;;;;1.50;1.40;;;;;;;15.37;71.86;100404.97;5032493;28;20403;-73
2023/05/12 23:14:00;;;;;;;1.30;1.30;;;;;;;15.32;72.21;100395.94;5039956;28;20411;-73
2023/05/12 23:16:26;;;;;;;1.20;1.20;;;;;;;15.28;72.41;100406.59;5040910;28;20404;-73
2023/05/12 23:18:51;;;;;;;1.60;1.20;;;;;;;15.27;72.09;100402.25;5035722;28;20576;-73
2023/05/12 23:21:16;;;;;;;1.90;1.30;;;;;;;15.35;72.00;100395.38;5039527;28;20431;-73
2023/05/12 23:23:41;;;;;;;1.10;1.10;;;;;;;15.40;71.79;100395.38;5039664;28;20391;-73
2023/05/12 23:26:08;;;;;;;1.40;1.10;;;;;;;15.48;71.52;100394.81;5041424;28;20401;-73
2023/05/12 23:28:33;;;;;;;1.60;1.15;;;;;;;15.50;71.11;100398.94;5039723;28;20464;-73
2023/05/12 23:30:58;;;;;;;1.17;1.10;;;;;;;15.50;70.91;100398.09;5030168;28;20383;-74
2023/05/12 23:33:23;;;;;;;1.13;1.13;;;;;;;15.48;71.13;100395.66;5039638;28;20886;-73
2023/05/12 23:35:49;;;;;;;1.43;1.43;;;;;;;15.44;71.41;100391.78;5041534;28;20498;-73
2023/05/12 23:38:14;;;;;;;1.87;1.30;;;;;;;15.45;71.12;100393.44;5042120;28;20397;-73
2023/05/12 23:40:39;;;;;;;1.20;1.20;;;;;;;15.45;71.08;100390.72;5037039;28;20916;-73
2023/05/12 23:43:05;;;;;;;1.30;1.30;;;;;;;15.42;70.86;100387.72;5039365;28;20754;-73
2023/05/12 23:45:31;;;;;;;1.52;1.42;;;;;;;15.40;70.91;100393.47;5040382;28;20442;-73
2023/05/12 23:47:56;;;;;;;2.00;1.90;;;;;;;15.33;71.28;100382.03;5040725;28;20434;-73
2023/05/12 23:50:22;;;;;;;1.80;1.70;;;;;;;15.31;71.34;100386.13;5037468;28;20502;-73
2023/05/12 23:52:47;;;;;;;2.10;2.00;;;;;;;15.27;71.50;100379.59;5038864;28;20413;-73
2023/05/12 23:55:12;;;;;;;2.30;1.90;;;;;;;15.29;71.44;100383.66;5039072;28;20431;-73
2023/05/12 23:57:38;;;;;;;2.37;2.17;;;;;;;15.29;71.42;100385.56;5042467;28;20397;-73
